LFBOLFCK

Guest
Details From LFBO - Toulouse Blagnac
To LFCK - Mazamet
Flight Number -
Tags generated
Created
Modified
Stats Distance 44 nm / 82 km
Max Altitude 3,100 ft / 945 m
Waypoints 3
Social Downloads 1
Likes 0
Share VATSIM

Download

Looking for another format? Having issues loading an existing format? Contact us
Advertisement - Login to hide

Notes

Basic altitude profile: - Ascent Rate: 2500ft/min - Ascent Speed: 250kts - Cruise Altitude: 35000ft - Cruise Speed: 420kts - Descent Rate: 1500ft/min - Descent Speed: 250kts

Route

LFBO FINOT LFCK

ID Type Via Altitude Latitude Longitude Leg Dist Tot Dist Heading (true) Name
O LFBO APT - 0 ft / 0 m 43.62903˚ 1.36397˚ - 0 nm - Toulouse Blagnac
FINOT FIX - 3,100 ft / 945 m 43.71508˚ 2.02989˚ 29 nm 29 nm 80° / 80° -
O LFCK APT - 0 ft / 0 m 43.55625˚ 2.28918˚ 14 nm 44 nm 130° / 130° Mazamet

Altitude Profile

Advertisement - Login to hide

LFBO

Details ICAO LFBO (TLS)
Name Toulouse Blagnac
Region France
Timezone Europe/Paris (UTC+1.0)
Stats Elevation 499 ft / 152 m (AMSL)
Location 43.629026° 1.363969°
Runways 2
Magnetic Variation 0.575° E

METAR

LFBO 151530Z AUTO 25018G29KT 9999 -RA BKN026/// BKN034/// OVC045/// ///CB 07/03 Q1007 TEMPO 4000 SHRA

Decode

TAF

TAF LFBO 151100Z 1512/1618 26014KT 9999 SCT018 TEMPO 1512/1522 28018G30KT 4000 SHRA BKN020 BKN040CB

Decode

Departure Runways

ID Width Length Bearing (true) Bearing (mag) Surface Threshold Offset Overrun Length
14L 148 ft / 45 m 9,923 ft / 3,025 m 143.00° 142.43° Asphalt 0 ft / 0 m 0 ft / 0 m
14R 148 ft / 45 m 11,484 ft / 3,500 m 142.99° 142.42° Asphalt 0 ft / 0 m 295 ft / 90 m
32L 148 ft / 45 m 11,484 ft / 3,500 m 323.01° 322.44° Asphalt 0 ft / 0 m 197 ft / 60 m
32R 148 ft / 45 m 9,923 ft / 3,025 m 323.02° 322.45° Asphalt 0 ft / 0 m 0 ft / 0 m

LFCK

Details ICAO LFCK (DCM)
Name Mazamet
Region France
Timezone Europe/Paris (UTC+1.0)
Stats Elevation 788 ft / 240 m (AMSL)
Location 43.556250° 2.289182°
Runways 1
Magnetic Variation 0.822° E

METAR

LFCK 151530Z AUTO 27015KT 9999 BKN031/// BKN042/// OVC050/// ///TCU 08/03 Q1007 TEMPO 28018G28KT 4000 SHRA BKN009 BKN028CB

Decode

TAF

Not found

Destination Runways

ID Width Length Bearing (true) Bearing (mag) Surface Threshold Offset Overrun Length
14 98 ft / 30 m 5,993 ft / 1,827 m 141.33° 140.51° Concrete 509 ft / 155 m 0 ft / 0 m
32 98 ft / 30 m 5,993 ft / 1,827 m 321.34° 320.52° Concrete 0 ft / 0 m 0 ft / 0 m

Approach Navaids

Runway Type Ident Frequency Range Bearing (true) Bearing (mag) Slope Elevation
14 Localiser EN 111.35 MHz 18 nm / 33 km 141.34° 140.52° - 790 ft / 241 m (AMSL)
14 Glidescope EN 111.35 MHz 10 nm / 19 km 141.33° 140.51° 3.50° 726 ft / 221 m (AMSL)
14 DME EN 111.35 MHz 18 nm / 33 km - - - 726 ft / 221 m (AMSL)

Popular Alternatives